PWSweather.com
Personal Weather Stations
Station Observations
KILMORRI1
Goose Lake, Morris, IL 60450

Goose LakeMorris, IL 60450

Lat: 41.34, Lon: -88.3

Elevation: 523

Station Type:

www.gooselakeweather.com

High Low Average
Temperature 23.1°F-4.9°C 2.1°F-16.6°C 13.4°F-10.3°C
Dew Point 18.7°F-7.4°C -4.0°F-20.0°C 8.6°F-13.0°C
Winds 17.3 mph 27.8 kmh Calm Calm 7.0 mph WSW11.3 kmh WSW
Wind Gusts 27.6 mph44.4 kmh -- 11.0 mph17.7 kmh
Humidity 87% 73% 81%
Pressure 30.22 in1023.4 mb 29.89 in1012.2 mb -
Precipitation 0.00 in0.0 mm - -
Hour Temp Dew Point Humidity Winds Wind Gusts Pressure Precip Precip Rate Daily Precip Total
12:00 AM 19.2°F-7.1°C 14.7°F-9.6°C 82% 3.5 mph WSW5.6 kmh WSW 4.6 mph7.4 kmh 29.89 in1012.2 mb - 0.00 in0.0 mm 0.27 in6.9 mm
12:10 AM 18.9°F-7.3°C 14.3°F-9.8°C 82% 2.3 mph W3.7 kmh W 3.5 mph5.6 kmh 29.90 in1012.5 mb - 0.00 in0.0 mm 0.27 in6.9 mm
12:20 AM 18.6°F-7.4°C 14.0°F-10.0°C 82% 3.5 mph W5.6 kmh W 3.5 mph5.6 kmh 29.90 in1012.5 mb - 0.00 in0.0 mm 0.27 in6.9 mm
12:30 AM 17.9°F-7.8°C 13.3°F-10.4°C 82% 4.6 mph W7.4 kmh W 6.9 mph11.1 kmh 29.90 in1012.5 mb - 0.00 in0.0 mm 0.27 in6.9 mm
12:40 AM 16.8°F-8.4°C 12.3°F-10.9°C 82% 5.8 mph W9.3 kmh W 5.8 mph9.3 kmh 29.90 in1012.5 mb - 0.00 in0.0 mm 0.27 in6.9 mm
12:50 AM 16.2°F-8.8°C 11.6°F-11.3°C 82% 4.6 mph WSW7.4 kmh WSW 5.8 mph9.3 kmh 29.91 in1012.9 mb - 0.00 in0.0 mm 0.27 in6.9 mm
01:00 AM 15.6°F-9.1°C 11.1°F-11.6°C 82% 5.8 mph W9.3 kmh W 6.9 mph11.1 kmh 29.90 in1012.5 mb - 0.00 in0.0 mm 0.00 in0.0 mm
01:10 AM 15.2°F-9.3°C 10.7°F-11.8°C 82% 3.5 mph W5.6 kmh W 3.5 mph5.6 kmh 29.90 in1012.5 mb - 0.00 in0.0 mm 0.00 in0.0 mm
01:20 AM 14.9°F-9.5°C 10.7°F-11.8°C 83% 4.6 mph W7.4 kmh W 5.8 mph9.3 kmh 29.90 in1012.5 mb - 0.00 in0.0 mm 0.00 in0.0 mm
01:30 AM 14.7°F-9.6°C 10.5°F-11.9°C 83% 3.5 mph W5.6 kmh W 3.5 mph5.6 kmh 29.91 in1012.9 mb - 0.00 in0.0 mm 0.00 in0.0 mm
01:40 AM 14.5°F-9.7°C 10.3°F-12.1°C 83% 3.5 mph W5.6 kmh W 5.8 mph9.3 kmh 29.91 in1012.9 mb - 0.00 in0.0 mm 0.00 in0.0 mm
01:50 AM 14.3°F-9.8°C 10.1°F-12.2°C 83% 2.3 mph WSW3.7 kmh WSW 3.5 mph5.6 kmh 29.90 in1012.5 mb - 0.00 in0.0 mm 0.00 in0.0 mm
02:00 AM 14.0°F-10.0°C 9.8°F-12.3°C 83% 4.6 mph W7.4 kmh W 5.8 mph9.3 kmh 29.90 in1012.5 mb - 0.00 in0.0 mm 0.00 in0.0 mm
02:10 AM 13.9°F-10.1°C 10.0°F-12.2°C 84% 2.3 mph W3.7 kmh W 3.5 mph5.6 kmh 29.90 in1012.5 mb - 0.00 in0.0 mm 0.00 in0.0 mm
02:20 AM 13.7°F-10.2°C 9.8°F-12.3°C 84% 3.5 mph W5.6 kmh W 6.9 mph11.1 kmh 29.90 in1012.5 mb - 0.00 in0.0 mm 0.00 in0.0 mm
02:30 AM 13.5°F-10.3°C 9.6°F-12.4°C 84% 5.8 mph W9.3 kmh W 9.2 mph14.8 kmh 29.90 in1012.5 mb - 0.00 in0.0 mm 0.00 in0.0 mm
02:40 AM 13.4°F-10.3°C 9.5°F-12.5°C 84% 2.3 mph W3.7 kmh W 3.5 mph5.6 kmh 29.90 in1012.5 mb - 0.00 in0.0 mm 0.00 in0.0 mm
02:50 AM 13.1°F-10.5°C 9.2°F-12.7°C 84% 2.3 mph W3.7 kmh W 5.8 mph9.3 kmh 29.89 in1012.2 mb - 0.00 in0.0 mm 0.00 in0.0 mm
03:00 AM 13.0°F-10.6°C 9.0°F-12.8°C 84% 1.2 mph W1.9 kmh W 2.3 mph3.7 kmh 29.89 in1012.2 mb - 0.00 in0.0 mm 0.00 in0.0 mm
03:10 AM 12.7°F-10.7°C 8.8°F-12.9°C 84% 2.3 mph WNW3.7 kmh WNW 4.6 mph7.4 kmh 29.89 in1012.2 mb - 0.00 in0.0 mm 0.00 in0.0 mm
03:20 AM 12.6°F-10.8°C 8.7°F-12.9°C 84% 2.3 mph W3.7 kmh W 3.5 mph5.6 kmh 29.89 in1012.2 mb - 0.00 in0.0 mm 0.00 in0.0 mm
03:30 AM 12.6°F-10.8°C 8.7°F-12.9°C 84% 1.2 mph W1.9 kmh W 1.2 mph1.9 kmh 29.89 in1012.2 mb - 0.00 in0.0 mm 0.00 in0.0 mm
03:40 AM 12.4°F-10.9°C 8.5°F-13.1°C 84% 1.2 mph W1.9 kmh W 3.5 mph5.6 kmh 29.89 in1012.2 mb - 0.00 in0.0 mm 0.00 in0.0 mm
03:50 AM 12.3°F-10.9°C 8.7°F-12.9°C 85% 1.2 mph W1.9 kmh W 2.3 mph3.7 kmh 29.89 in1012.2 mb - 0.00 in0.0 mm 0.00 in0.0 mm
04:00 AM 12.3°F-10.9°C 8.7°F-12.9°C 85% 2.3 mph W3.7 kmh W 3.5 mph5.6 kmh 29.89 in1012.2 mb - 0.00 in0.0 mm 0.00 in0.0 mm
04:10 AM 11.9°F-11.2°C 8.3°F-13.2°C 85% 1.2 mph WSW1.9 kmh WSW 3.5 mph5.6 kmh 29.89 in1012.2 mb - 0.00 in0.0 mm 0.00 in0.0 mm
04:20 AM 11.9°F-11.2°C 8.3°F-13.2°C 85% 1.2 mph W1.9 kmh W 1.2 mph1.9 kmh 29.89 in1012.2 mb - 0.00 in0.0 mm 0.00 in0.0 mm
04:30 AM 11.6°F-11.3°C 8.0°F-13.3°C 85% Calm Calm 2.3 mph3.7 kmh 29.89 in1012.2 mb - 0.00 in0.0 mm 0.00 in0.0 mm
04:40 AM 11.5°F-11.4°C 7.9°F-13.4°C 85% Calm Calm 1.2 mph1.9 kmh 29.89 in1012.2 mb - 0.00 in0.0 mm 0.00 in0.0 mm
04:50 AM 11.4°F-11.4°C 8.0°F-13.3°C 86% Calm Calm 1.2 mph1.9 kmh 29.89 in1012.2 mb - 0.00 in0.0 mm 0.00 in0.0 mm
05:00 AM 11.5°F-11.4°C 8.1°F-13.3°C 86% Calm Calm 1.2 mph1.9 kmh 29.89 in1012.2 mb - 0.00 in0.0 mm 0.00 in0.0 mm
05:10 AM 10.8°F-11.8°C 7.4°F-13.7°C 86% Calm Calm 1.2 mph1.9 kmh 29.89 in1012.2 mb - 0.00 in0.0 mm 0.00 in0.0 mm
05:20 AM 10.4°F-12.0°C 7.1°F-13.8°C 86% Calm Calm -- 29.89 in1012.2 mb - 0.00 in0.0 mm 0.00 in0.0 mm
05:30 AM 10.4°F-12.0°C 7.0°F-13.9°C 86% Calm Calm -- 29.89 in1012.2 mb - 0.00 in0.0 mm 0.00 in0.0 mm
05:40 AM 10.3°F-12.1°C 6.9°F-13.9°C 86% Calm Calm 1.2 mph1.9 kmh 29.89 in1012.2 mb - 0.00 in0.0 mm 0.00 in0.0 mm
05:50 AM 10.3°F-12.1°C 6.9°F-13.9°C 86% 1.2 mph W1.9 kmh W 1.2 mph1.9 kmh 29.89 in1012.2 mb - 0.00 in0.0 mm 0.00 in0.0 mm
06:00 AM 10.2°F-12.1°C 6.8°F-14.0°C 86% Calm Calm -- 29.89 in1012.2 mb - 0.00 in0.0 mm 0.00 in0.0 mm
06:10 AM 10.0°F-12.2°C 6.6°F-14.1°C 86% Calm Calm -- 29.89 in1012.2 mb - 0.00 in0.0 mm 0.00 in0.0 mm
06:20 AM 9.9°F-12.3°C 6.6°F-14.1°C 86% 1.2 mph W1.9 kmh W 2.3 mph3.7 kmh 29.89 in1012.2 mb - 0.00 in0.0 mm 0.00 in0.0 mm
06:30 AM 10.3°F-12.1°C 7.2°F-13.8°C 87% 1.2 mph W1.9 kmh W 2.3 mph3.7 kmh 29.90 in1012.5 mb - 0.00 in0.0 mm 0.00 in0.0 mm
06:40 AM 10.8°F-11.8°C 7.7°F-13.5°C 87% Calm Calm 1.2 mph1.9 kmh 29.89 in1012.2 mb - 0.00 in0.0 mm 0.00 in0.0 mm
06:50 AM 11.0°F-11.7°C 7.9°F-13.4°C 87% Calm Calm 1.2 mph1.9 kmh 29.89 in1012.2 mb - 0.00 in0.0 mm 0.00 in0.0 mm
07:00 AM 10.9°F-11.7°C 7.8°F-13.4°C 87% 1.2 mph WSW1.9 kmh WSW 2.3 mph3.7 kmh 29.90 in1012.5 mb - 0.00 in0.0 mm 0.00 in0.0 mm
07:10 AM 11.0°F-11.7°C 7.9°F-13.4°C 87% 1.2 mph SW1.9 kmh SW 3.5 mph5.6 kmh 29.90 in1012.5 mb - 0.00 in0.0 mm 0.00 in0.0 mm
07:20 AM 11.4°F-11.4°C 8.3°F-13.2°C 87% 2.3 mph SW3.7 kmh SW 3.5 mph5.6 kmh 29.90 in1012.5 mb - 0.00 in0.0 mm 0.00 in0.0 mm
07:30 AM 11.4°F-11.4°C 8.0°F-13.3°C 86% 1.2 mph SSW1.9 kmh SSW 4.6 mph7.4 kmh 29.90 in1012.5 mb - 0.00 in0.0 mm 0.00 in0.0 mm
07:40 AM 11.6°F-11.3°C 8.2°F-13.2°C 86% 1.2 mph SW1.9 kmh SW 3.5 mph5.6 kmh 29.90 in1012.5 mb - 0.00 in0.0 mm 0.00 in0.0 mm
07:50 AM 11.7°F-11.3°C 8.3°F-13.2°C 86% 1.2 mph SSW1.9 kmh SSW 2.3 mph3.7 kmh 29.90 in1012.5 mb - 0.00 in0.0 mm 0.00 in0.0 mm
08:00 AM 11.9°F-11.2°C 8.5°F-13.1°C 86% 1.2 mph SSW1.9 kmh SSW 3.5 mph5.6 kmh 29.90 in1012.5 mb - 0.00 in0.0 mm 0.00 in0.0 mm
08:10 AM 11.9°F-11.2°C 8.5°F-13.1°C 86% Calm Calm 2.3 mph3.7 kmh 29.89 in1012.2 mb - 0.00 in0.0 mm 0.00 in0.0 mm
08:20 AM 11.8°F-11.2°C 8.4°F-13.1°C 86% 1.2 mph SSW1.9 kmh SSW 1.2 mph1.9 kmh 29.89 in1012.2 mb - 0.00 in0.0 mm 0.00 in0.0 mm
08:30 AM 11.7°F-11.3°C 8.3°F-13.2°C 86% 2.3 mph SW3.7 kmh SW 3.5 mph5.6 kmh 29.89 in1012.2 mb - 0.00 in0.0 mm 0.00 in0.0 mm
08:40 AM 11.9°F-11.2°C 8.5°F-13.1°C 86% 1.2 mph SW1.9 kmh SW 2.3 mph3.7 kmh 29.90 in1012.5 mb - 0.00 in0.0 mm 0.00 in0.0 mm
08:50 AM 12.5°F-10.8°C 9.1°F-12.7°C 86% 1.2 mph SSW1.9 kmh SSW 2.3 mph3.7 kmh 29.90 in1012.5 mb - 0.00 in0.0 mm 0.00 in0.0 mm
09:00 AM 12.8°F-10.7°C 9.4°F-12.6°C 86% 2.3 mph SSW3.7 kmh SSW 3.5 mph5.6 kmh 29.90 in1012.5 mb - 0.00 in0.0 mm 0.00 in0.0 mm
09:10 AM 13.1°F-10.5°C 9.7°F-12.4°C 86% 2.3 mph SSW3.7 kmh SSW 2.3 mph3.7 kmh 29.91 in1012.9 mb - 0.00 in0.0 mm 0.00 in0.0 mm
09:20 AM 13.4°F-10.3°C 10.0°F-12.2°C 86% 3.5 mph SW5.6 kmh SW 3.5 mph5.6 kmh 29.92 in1013.2 mb - 0.00 in0.0 mm 0.00 in0.0 mm
09:30 AM 13.8°F-10.1°C 10.4°F-12.0°C 86% 3.5 mph SW5.6 kmh SW 3.5 mph5.6 kmh 29.92 in1013.2 mb - 0.00 in0.0 mm 0.00 in0.0 mm
09:40 AM 14.5°F-9.7°C 10.9°F-11.7°C 85% 2.3 mph SSW3.7 kmh SSW 3.5 mph5.6 kmh 29.91 in1012.9 mb - 0.00 in0.0 mm 0.00 in0.0 mm
09:50 AM 15.6°F-9.1°C 11.9°F-11.2°C 85% 3.5 mph SW5.6 kmh SW 6.9 mph11.1 kmh 29.91 in1012.9 mb - 0.00 in0.0 mm 0.00 in0.0 mm
10:00 AM 16.3°F-8.7°C 12.5°F-10.8°C 85% 3.5 mph SSW5.6 kmh SSW 5.8 mph9.3 kmh 29.91 in1012.9 mb - 0.00 in0.0 mm 0.00 in0.0 mm
10:10 AM 16.6°F-8.6°C 12.6°F-10.8°C 84% 4.6 mph SW7.4 kmh SW 6.9 mph11.1 kmh 29.91 in1012.9 mb - 0.00 in0.0 mm 0.00 in0.0 mm
10:20 AM 16.7°F-8.5°C 12.8°F-10.7°C 84% 5.8 mph SW9.3 kmh SW 8.1 mph13.0 kmh 29.93 in1013.5 mb - 0.00 in0.0 mm 0.00 in0.0 mm
10:30 AM 17.0°F-8.3°C 13.0°F-10.6°C 84% 3.5 mph SW5.6 kmh SW 10.4 mph16.7 kmh 29.92 in1013.2 mb - 0.00 in0.0 mm 0.00 in0.0 mm
10:40 AM 17.0°F-8.3°C 13.0°F-10.6°C 84% 4.6 mph SW7.4 kmh SW 6.9 mph11.1 kmh 29.93 in1013.5 mb - 0.00 in0.0 mm 0.00 in0.0 mm
10:50 AM 17.3°F-8.2°C 13.3°F-10.4°C 84% 4.6 mph SW7.4 kmh SW 6.9 mph11.1 kmh 29.93 in1013.5 mb - 0.00 in0.0 mm 0.00 in0.0 mm
11:00 AM 17.6°F-8.0°C 13.6°F-10.2°C 84% 2.3 mph SW3.7 kmh SW 3.5 mph5.6 kmh 29.92 in1013.2 mb - 0.00 in0.0 mm 0.00 in0.0 mm
11:10 AM 17.7°F-7.9°C 13.7°F-10.2°C 84% 4.6 mph SW7.4 kmh SW 4.6 mph7.4 kmh 29.93 in1013.5 mb - 0.00 in0.0 mm 0.00 in0.0 mm
11:20 AM 18.1°F-7.7°C 14.1°F-9.9°C 84% 4.6 mph SW7.4 kmh SW 9.2 mph14.8 kmh 29.93 in1013.5 mb - 0.00 in0.0 mm 0.00 in0.0 mm
11:30 AM 18.3°F-7.6°C 14.3°F-9.8°C 84% 4.6 mph W7.4 kmh W 5.8 mph9.3 kmh 29.93 in1013.5 mb - 0.00 in0.0 mm 0.00 in0.0 mm
11:40 AM 18.9°F-7.3°C 14.9°F-9.5°C 84% 4.6 mph SW7.4 kmh SW 8.1 mph13.0 kmh 29.93 in1013.5 mb - 0.00 in0.0 mm 0.00 in0.0 mm
11:50 AM 18.7°F-7.4°C 14.7°F-9.6°C 84% 3.5 mph SW5.6 kmh SW 5.8 mph9.3 kmh 29.93 in1013.5 mb - 0.00 in0.0 mm 0.00 in0.0 mm
12:00 PM 18.9°F-7.3°C 14.9°F-9.5°C 84% 5.8 mph WSW9.3 kmh WSW 9.2 mph14.8 kmh 29.94 in1013.9 mb - 0.00 in0.0 mm 0.00 in0.0 mm
12:10 PM 18.6°F-7.4°C 14.3°F-9.8°C 83% 5.8 mph SW9.3 kmh SW 9.2 mph14.8 kmh 29.93 in1013.5 mb - 0.00 in0.0 mm 0.00 in0.0 mm
12:20 PM 18.7°F-7.4°C 14.1°F-9.9°C 82% 8.1 mph W13.0 kmh W 10.4 mph16.7 kmh 29.93 in1013.5 mb - 0.00 in0.0 mm 0.00 in0.0 mm
12:30 PM 18.9°F-7.3°C 14.3°F-9.8°C 82% 5.8 mph WSW9.3 kmh WSW 5.8 mph9.3 kmh 29.93 in1013.5 mb - 0.00 in0.0 mm 0.00 in0.0 mm
12:40 PM 19.4°F-7.0°C 14.8°F-9.6°C 82% 6.9 mph WSW11.1 kmh WSW 9.2 mph14.8 kmh 29.93 in1013.5 mb - 0.00 in0.0 mm 0.00 in0.0 mm
12:50 PM 19.7°F-6.8°C 15.1°F-9.4°C 82% 5.8 mph W9.3 kmh W 6.9 mph11.1 kmh 29.92 in1013.2 mb - 0.00 in0.0 mm 0.00 in0.0 mm
01:00 PM 19.9°F-6.7°C 15.3°F-9.3°C 82% 8.1 mph WSW13.0 kmh WSW 11.5 mph18.5 kmh 29.92 in1013.2 mb - 0.00 in0.0 mm 0.00 in0.0 mm
01:10 PM 20.1°F-6.6°C 15.5°F-9.2°C 82% 9.2 mph WSW14.8 kmh WSW 12.7 mph20.4 kmh 29.92 in1013.2 mb - 0.00 in0.0 mm 0.00 in0.0 mm
01:20 PM 20.2°F-6.6°C 15.9°F-8.9°C 83% 5.8 mph W9.3 kmh W 9.2 mph14.8 kmh 29.92 in1013.2 mb - 0.00 in0.0 mm 0.00 in0.0 mm
01:30 PM 20.6°F-6.3°C 16.3°F-8.7°C 83% 8.1 mph WSW13.0 kmh WSW 16.1 mph25.9 kmh 29.92 in1013.2 mb - 0.00 in0.0 mm 0.00 in0.0 mm
01:40 PM 20.9°F-6.2°C 16.5°F-8.6°C 83% 6.9 mph W11.1 kmh W 10.4 mph16.7 kmh 29.92 in1013.2 mb - 0.00 in0.0 mm 0.00 in0.0 mm
01:50 PM 21.0°F-6.1°C 16.7°F-8.5°C 83% 5.8 mph WNW9.3 kmh WNW 10.4 mph16.7 kmh 29.92 in1013.2 mb - 0.00 in0.0 mm 0.00 in0.0 mm
02:00 PM 21.3°F-5.9°C 16.7°F-8.5°C 82% 10.4 mph WNW16.7 kmh WNW 17.3 mph27.8 kmh 29.91 in1012.9 mb - 0.00 in0.0 mm 0.00 in0.0 mm
02:10 PM 21.9°F-5.6°C 17.3°F-8.2°C 82% 6.9 mph W11.1 kmh W 11.5 mph18.5 kmh 29.91 in1012.9 mb - 0.00 in0.0 mm 0.00 in0.0 mm
02:20 PM 22.5°F-5.3°C 17.8°F-7.9°C 82% 6.9 mph W11.1 kmh W 11.5 mph18.5 kmh 29.91 in1012.9 mb - 0.00 in0.0 mm 0.00 in0.0 mm
02:30 PM 22.7°F-5.2°C 17.8°F-7.9°C 81% 6.9 mph WNW11.1 kmh WNW 11.5 mph18.5 kmh 29.91 in1012.9 mb - 0.00 in0.0 mm 0.00 in0.0 mm
02:40 PM 23.1°F-4.9°C 18.1°F-7.7°C 81% 8.1 mph W13.0 kmh W 11.5 mph18.5 kmh 29.92 in1013.2 mb - 0.00 in0.0 mm 0.00 in0.0 mm
02:50 PM 23.1°F-4.9°C 18.4°F-7.6°C 82% 9.2 mph WSW14.8 kmh WSW 17.3 mph27.8 kmh 29.92 in1013.2 mb - 0.00 in0.0 mm 0.00 in0.0 mm
03:00 PM 23.0°F-5.0°C 18.3°F-7.6°C 82% 8.1 mph WSW13.0 kmh WSW 15.0 mph24.1 kmh 29.92 in1013.2 mb - 0.00 in0.0 mm 0.00 in0.0 mm
03:10 PM 22.9°F-5.1°C 18.5°F-7.5°C 83% 8.1 mph W13.0 kmh W 11.5 mph18.5 kmh 29.92 in1013.2 mb - 0.00 in0.0 mm 0.00 in0.0 mm
03:20 PM 23.0°F-5.0°C 18.6°F-7.4°C 83% 10.4 mph W16.7 kmh W 16.1 mph25.9 kmh 29.92 in1013.2 mb - 0.00 in0.0 mm 0.00 in0.0 mm
03:30 PM 23.1°F-4.9°C 18.7°F-7.4°C 83% 6.9 mph W11.1 kmh W 9.2 mph14.8 kmh 29.93 in1013.5 mb - 0.00 in0.0 mm 0.00 in0.0 mm
03:40 PM 23.0°F-5.0°C 18.3°F-7.6°C 82% 11.5 mph W18.5 kmh W 15.0 mph24.1 kmh 29.93 in1013.5 mb - 0.00 in0.0 mm 0.00 in0.0 mm
03:50 PM 22.8°F-5.1°C 17.9°F-7.8°C 81% 10.4 mph W16.7 kmh W 18.4 mph29.6 kmh 29.94 in1013.9 mb - 0.00 in0.0 mm 0.00 in0.0 mm
04:00 PM 22.3°F-5.4°C 17.1°F-8.3°C 80% 12.7 mph W20.4 kmh W 19.6 mph31.5 kmh 29.95 in1014.2 mb - 0.00 in0.0 mm 0.00 in0.0 mm
04:10 PM 21.9°F-5.6°C 16.7°F-8.5°C 80% 17.3 mph W27.8 kmh W 23.0 mph37.0 kmh 29.96 in1014.6 mb - 0.00 in0.0 mm 0.00 in0.0 mm
04:20 PM 21.0°F-6.1°C 15.5°F-9.2°C 79% 10.4 mph W16.7 kmh W 13.8 mph22.2 kmh 29.96 in1014.6 mb - 0.00 in0.0 mm 0.00 in0.0 mm
04:30 PM 20.4°F-6.4°C 15.0°F-9.4°C 79% 11.5 mph WSW18.5 kmh WSW 18.4 mph29.6 kmh 29.97 in1014.9 mb - 0.00 in0.0 mm 0.00 in0.0 mm
04:40 PM 19.7°F-6.8°C 14.0°F-10.0°C 78% 13.8 mph W22.2 kmh W 21.9 mph35.2 kmh 29.98 in1015.2 mb - 0.00 in0.0 mm 0.00 in0.0 mm
04:50 PM 19.3°F-7.1°C 13.2°F-10.4°C 77% 15.0 mph W24.1 kmh W 19.6 mph31.5 kmh 29.98 in1015.2 mb - 0.00 in0.0 mm 0.00 in0.0 mm
05:00 PM 18.7°F-7.4°C 12.4°F-10.9°C 76% 16.1 mph W25.9 kmh W 19.6 mph31.5 kmh 29.99 in1015.6 mb - 0.00 in0.0 mm 0.00 in0.0 mm
05:10 PM 18.2°F-7.7°C 12.2°F-11.0°C 77% 16.1 mph W25.9 kmh W 23.0 mph37.0 kmh 30.00 in1015.9 mb - 0.00 in0.0 mm 0.00 in0.0 mm
05:20 PM 17.7°F-7.9°C 11.4°F-11.4°C 76% 15.0 mph W24.1 kmh W 21.9 mph35.2 kmh 30.01 in1016.3 mb - 0.00 in0.0 mm 0.00 in0.0 mm
05:30 PM 16.9°F-8.4°C 10.6°F-11.9°C 76% 13.8 mph WNW22.2 kmh WNW 20.7 mph33.3 kmh 30.01 in1016.3 mb - 0.00 in0.0 mm 0.00 in0.0 mm
05:40 PM 16.2°F-8.8°C 10.0°F-12.2°C 76% 10.4 mph WSW16.7 kmh WSW 13.8 mph22.2 kmh 30.02 in1016.6 mb - 0.00 in0.0 mm 0.00 in0.0 mm
05:50 PM 15.6°F-9.1°C 9.7°F-12.4°C 77% 12.7 mph W20.4 kmh W 18.4 mph29.6 kmh 30.02 in1016.6 mb - 0.00 in0.0 mm 0.00 in0.0 mm
06:00 PM 15.0°F-9.4°C 9.1°F-12.7°C 77% 10.4 mph W16.7 kmh W 17.3 mph27.8 kmh 30.03 in1016.9 mb - 0.00 in0.0 mm 0.00 in0.0 mm
06:10 PM 14.3°F-9.8°C 8.4°F-13.1°C 77% 11.5 mph WSW18.5 kmh WSW 17.3 mph27.8 kmh 30.03 in1016.9 mb - 0.00 in0.0 mm 0.00 in0.0 mm
06:20 PM 13.6°F-10.2°C 7.7°F-13.5°C 77% 12.7 mph W20.4 kmh W 23.0 mph37.0 kmh 30.04 in1017.3 mb - 0.00 in0.0 mm 0.00 in0.0 mm
06:30 PM 13.1°F-10.5°C 7.2°F-13.8°C 77% 11.5 mph W18.5 kmh W 17.3 mph27.8 kmh 30.04 in1017.3 mb - 0.00 in0.0 mm 0.00 in0.0 mm
06:40 PM 12.6°F-10.8°C 6.8°F-14.0°C 77% 15.0 mph W24.1 kmh W 19.6 mph31.5 kmh 30.05 in1017.6 mb - 0.00 in0.0 mm 0.00 in0.0 mm
06:50 PM 12.0°F-11.1°C 5.9°F-14.5°C 76% 11.5 mph WSW18.5 kmh WSW 27.6 mph44.4 kmh 30.05 in1017.6 mb - 0.00 in0.0 mm 0.00 in0.0 mm
07:00 PM 11.6°F-11.3°C 5.8°F-14.6°C 77% 16.1 mph W25.9 kmh W 26.5 mph42.6 kmh 30.06 in1017.9 mb - 0.00 in0.0 mm 0.00 in0.0 mm
07:10 PM 11.3°F-11.5°C 5.5°F-14.7°C 77% 9.2 mph W14.8 kmh W 10.4 mph16.7 kmh 30.06 in1017.9 mb - 0.00 in0.0 mm 0.00 in0.0 mm
07:20 PM 11.1°F-11.6°C 5.6°F-14.7°C 78% 11.5 mph W18.5 kmh W 16.1 mph25.9 kmh 30.07 in1018.3 mb - 0.00 in0.0 mm 0.00 in0.0 mm
07:30 PM 10.7°F-11.8°C 4.9°F-15.1°C 77% 12.7 mph W20.4 kmh W 15.0 mph24.1 kmh 30.07 in1018.3 mb - 0.00 in0.0 mm 0.00 in0.0 mm
07:40 PM 10.4°F-12.0°C 4.3°F-15.4°C 76% 12.7 mph W20.4 kmh W 24.2 mph38.9 kmh 30.08 in1018.6 mb - 0.00 in0.0 mm 0.00 in0.0 mm
07:50 PM 10.2°F-12.1°C 3.8°F-15.7°C 75% 11.5 mph W18.5 kmh W 20.7 mph33.3 kmh 30.09 in1019.0 mb - 0.00 in0.0 mm 0.00 in0.0 mm
08:00 PM 9.9°F-12.3°C 3.6°F-15.8°C 75% 15.0 mph W24.1 kmh W 17.3 mph27.8 kmh 30.10 in1019.3 mb - 0.00 in0.0 mm 0.00 in0.0 mm
08:10 PM 9.6°F-12.4°C 3.0°F-16.1°C 74% 13.8 mph W22.2 kmh W 24.2 mph38.9 kmh 30.10 in1019.3 mb - 0.00 in0.0 mm 0.00 in0.0 mm
08:20 PM 9.3°F-12.6°C 2.7°F-16.3°C 74% 17.3 mph W27.8 kmh W 26.5 mph42.6 kmh 30.10 in1019.3 mb - 0.00 in0.0 mm 0.00 in0.0 mm
08:30 PM 9.0°F-12.8°C 2.4°F-16.4°C 74% 15.0 mph W24.1 kmh W 21.9 mph35.2 kmh 30.11 in1019.6 mb - 0.00 in0.0 mm 0.00 in0.0 mm
08:40 PM 8.7°F-12.9°C 1.8°F-16.8°C 73% 10.4 mph W16.7 kmh W 17.3 mph27.8 kmh 30.11 in1019.6 mb - 0.00 in0.0 mm 0.00 in0.0 mm
08:50 PM 8.4°F-13.1°C 1.8°F-16.8°C 74% 11.5 mph W18.5 kmh W 19.6 mph31.5 kmh 30.12 in1020.0 mb - 0.00 in0.0 mm 0.00 in0.0 mm
09:00 PM 8.1°F-13.3°C 1.5°F-16.9°C 74% 12.7 mph WSW20.4 kmh WSW 19.6 mph31.5 kmh 30.13 in1020.3 mb - 0.00 in0.0 mm 0.00 in0.0 mm
09:10 PM 7.8°F-13.4°C 0.9°F-17.3°C 73% 15.0 mph W24.1 kmh W 23.0 mph37.0 kmh 30.13 in1020.3 mb - 0.00 in0.0 mm 0.00 in0.0 mm
09:20 PM 7.4°F-13.7°C 0.6°F-17.4°C 73% 12.7 mph W20.4 kmh W 25.3 mph40.7 kmh 30.14 in1020.7 mb - 0.00 in0.0 mm 0.00 in0.0 mm
09:30 PM 7.2°F-13.8°C 0.4°F-17.6°C 73% 15.0 mph W24.1 kmh W 25.3 mph40.7 kmh 30.14 in1020.7 mb - 0.00 in0.0 mm 0.00 in0.0 mm
09:40 PM 6.9°F-13.9°C 0.1°F-17.7°C 73% 10.4 mph WNW16.7 kmh WNW 18.4 mph29.6 kmh 30.14 in1020.7 mb - 0.00 in0.0 mm 0.00 in0.0 mm
09:50 PM 6.6°F-14.1°C -0.3°F-17.9°C 73% 11.5 mph W18.5 kmh W 19.6 mph31.5 kmh 30.15 in1021.0 mb - 0.00 in0.0 mm 0.00 in0.0 mm
10:00 PM 6.3°F-14.3°C -0.2°F-17.9°C 74% 13.8 mph W22.2 kmh W 20.7 mph33.3 kmh 30.15 in1021.0 mb - 0.00 in0.0 mm 0.00 in0.0 mm
10:10 PM 5.9°F-14.5°C -0.6°F-18.1°C 74% 15.0 mph W24.1 kmh W 19.6 mph31.5 kmh 30.15 in1021.0 mb - 0.00 in0.0 mm 0.00 in0.0 mm
10:20 PM 5.7°F-14.6°C -0.8°F-18.2°C 74% 15.0 mph W24.1 kmh W 18.4 mph29.6 kmh 30.16 in1021.3 mb - 0.00 in0.0 mm 0.00 in0.0 mm
10:30 PM 5.5°F-14.7°C -1.0°F-18.3°C 74% 11.5 mph W18.5 kmh W 23.0 mph37.0 kmh 30.16 in1021.3 mb - 0.00 in0.0 mm 0.00 in0.0 mm
10:40 PM 5.1°F-14.9°C -1.4°F-18.6°C 74% 9.2 mph W14.8 kmh W 12.7 mph20.4 kmh 30.17 in1021.7 mb - 0.00 in0.0 mm 0.00 in0.0 mm
10:50 PM 4.9°F-15.1°C -1.6°F-18.7°C 74% 12.7 mph W20.4 kmh W 20.7 mph33.3 kmh 30.17 in1021.7 mb - 0.00 in0.0 mm 0.00 in0.0 mm
11:00 PM 4.6°F-15.2°C -2.2°F-19.0°C 73% 13.8 mph W22.2 kmh W 20.7 mph33.3 kmh 30.17 in1021.7 mb - 0.00 in0.0 mm 0.00 in0.0 mm
11:10 PM 4.2°F-15.4°C -2.5°F-19.2°C 73% 9.2 mph W14.8 kmh W 13.8 mph22.2 kmh 30.18 in1022.0 mb - 0.00 in0.0 mm 0.00 in0.0 mm
11:20 PM 3.9°F-15.6°C -2.8°F-19.3°C 73% 13.8 mph W22.2 kmh W 20.7 mph33.3 kmh 30.18 in1022.0 mb - 0.00 in0.0 mm 0.00 in0.0 mm
11:30 PM 3.7°F-15.7°C -2.7°F-19.3°C 74% 9.2 mph WNW14.8 kmh WNW 15.0 mph24.1 kmh 30.19 in1022.4 mb - 0.00 in0.0 mm 0.00 in0.0 mm
11:40 PM 3.5°F-15.8°C -2.9°F-19.4°C 74% 8.1 mph WSW13.0 kmh WSW 12.7 mph20.4 kmh 30.19 in1022.4 mb - 0.00 in0.0 mm 0.00 in0.0 mm
11:50 PM 3.3°F-15.9°C -3.1°F-19.5°C 74% 12.7 mph W20.4 kmh W 19.6 mph31.5 kmh 30.20 in1022.7 mb - 0.00 in0.0 mm 0.00 in0.0 mm